Time;durP1;ratioP1;P1;durP2;ratioP2;P2;SDS_P1;SDS_P2;PMS_P1;PMS_P2;Temp;Humidity;BMP_temperature;BMP_pressure;BME280_temperature;BME280_humidity;BME280_pressure;Samples;Min_cycle;Max_cycle;Signal;HPM_P1;HPM_P2
2023/10/14 00:02:08;;;;;;;;;;;;;;;28.89;55.90;100894.66;5041543;28;66877;-40
2023/10/14 00:04:38;;;;;;;;;;;;;;;28.91;55.87;100904.22;5040144;28;70987;-38
2023/10/14 00:07:11;;;;;;;;;;;;;;;28.93;56.63;100899.47;5040616;28;66247;-38
2023/10/14 00:09:43;;;;;;;;;;;;;;;28.98;56.33;100904.25;5048288;28;69479;-38
2023/10/14 00:12:14;;;;;;;;;;;;;;;29.02;57.05;100901.97;5039489;28;66327;-38
2023/10/14 00:14:44;;;;;;;;;;;;;;;29.05;57.06;100898.88;5041284;28;70213;-39
2023/10/14 00:17:18;;;;;;;;;;;;;;;29.09;57.68;100906.38;5039409;28;65773;-39
2023/10/14 00:19:55;;;;;;;;;;;;;;;29.12;58.07;100915.91;5041783;28;70811;-38
2023/10/14 00:22:28;;;;;;;;;;;;;;;29.14;58.45;100916.53;5039809;28;66956;-39
2023/10/14 00:24:58;;;;;;;;;;;;;;;29.20;58.41;100923.81;5039552;28;70079;-38
2023/10/14 00:27:28;;;;;;;;;;;;;;;29.20;58.57;100923.81;5041800;28;66109;-39
2023/10/14 00:30:11;;;;;;;;;;;;;;;29.27;62.07;100930.03;5041499;28;70413;-40
2023/10/14 00:32:41;;;;;;;;;;;;;;;29.33;65.70;100928.38;5055498;28;66000;-40
2023/10/14 00:35:12;;;;;;;;;;;;;;;29.36;67.63;100927.94;5041850;28;70375;-40
2023/10/14 00:37:42;;;;;;;;;;;;;;;29.39;70.07;100933.78;5039075;28;65786;-39
2023/10/14 00:40:12;;;;;;;;;;;;;;;29.44;70.81;100935.03;5041737;28;70648;-39
2023/10/14 00:42:44;;;;;;;;;;;;;;;29.48;72.56;100933.56;5038428;28;66757;-39
2023/10/14 00:45:15;;;;;;;;;;;;;;;29.53;72.03;100940.00;5036591;28;70070;-39
2023/10/14 00:47:44;;;;;;;;;;;;;;;29.54;69.54;100938.97;5042131;28;66473;-40
2023/10/14 00:50:33;;;;;;;;;;;;;;;29.59;71.22;100943.75;5041075;28;69860;-40
2023/10/14 00:53:07;;;;;;;;;;;;;;;29.62;67.31;100940.63;5028369;28;66791;-41
2023/10/14 00:55:52;;;;;;;;;;;;;;;29.64;66.55;100935.84;5038773;28;70778;-41
2023/10/14 00:58:28;;;;;;;;;;;;;;;29.66;66.33;100933.78;5040454;28;66298;-41
2023/10/14 01:00:58;;;;;;;;;;;;;;;29.69;65.45;100938.75;5041267;28;70303;-41
2023/10/14 01:03:32;;;;;;;;;;;;;;;29.73;69.17;100928.38;5036719;28;65983;-39
2023/10/14 01:06:34;;;;;;;;;;;;;;;29.74;66.78;100936.25;5040617;28;70311;-38
2023/10/14 01:09:10;;;;;;;;;;;;;;;29.78;66.36;100948.31;5035403;28;66625;-41
2023/10/14 01:11:41;;;;;;;;;;;;;;;29.81;65.59;100942.50;5039091;28;70398;-41
2023/10/14 01:14:16;;;;;;;;;;;;;;;29.81;65.36;100947.91;5030412;28;66288;-41
2023/10/14 01:16:47;;;;;;;;;;;;;;;29.83;65.53;100945.78;5040268;28;70818;-41
2023/10/14 01:19:21;;;;;;;;;;;;;;;29.87;65.37;100951.63;5042068;28;67099;-40
2023/10/14 01:21:52;;;;;;;;;;;;;;;29.89;65.46;100960.34;5039880;28;70666;-40
2023/10/14 01:24:22;;;;;;;;;;;;;;;29.92;65.34;100961.78;5042004;28;67076;-41
2023/10/14 01:26:55;;;;;;;;;;;;;;;29.96;70.74;100965.75;5049700;28;69640;-43
2023/10/14 01:29:30;;;;;;;;;;;;;;;29.93;71.56;100966.16;5040894;28;67052;-41
2023/10/14 01:32:05;;;;;;;;;;;;;;;29.91;72.62;100974.47;5041696;28;70574;-40
2023/10/14 01:34:42;;;;;;;;;;;;;;;29.92;72.34;100965.34;5043714;28;67149;-41
2023/10/14 01:37:19;;;;;;;;;;;;;;;29.94;74.78;100978.66;5040262;28;67899;-40
2023/10/14 01:39:50;;;;;;;;;;;;;;;29.72;75.57;100938.31;5040252;28;66623;-42
2023/10/14 01:42:20;;;;;;;;;;;;;;;29.98;75.77;100979.91;5039828;28;68079;-40
2023/10/14 01:44:53;;;;;;;;;;;;;;;29.98;75.65;100969.06;5039433;28;66618;-40
2023/10/14 01:47:25;;;;;;;;;;;;;;;30.01;76.56;100982.19;5039101;28;70462;-40
2023/10/14 01:49:56;;;;;;;;;;;;;;;30.00;76.89;100977.78;5039436;28;65335;-44
2023/10/14 01:52:26;;;;;;;;;;;;;;;30.03;77.12;100985.47;5038586;28;70109;-41
2023/10/14 01:54:56;;;;;;;;;;;;;;;30.04;76.49;100984.44;5038467;28;66693;-40
2023/10/14 01:57:27;;;;;;;;;;;;;;;30.07;76.70;100989.44;5039215;28;70470;-40
2023/10/14 01:59:57;;;;;;;;;;;;;;;30.09;77.21;100987.34;5043958;28;66514;-41
2023/10/14 02:02:28;;;;;;;;;;;;;;;30.11;77.01;100987.94;5054236;28;70653;-40
2023/10/14 02:04:58;;;;;;;;;;;;;;;30.13;76.92;100977.75;5040568;28;66938;-39
2023/10/14 02:07:30;;;;;;;;;;;;;;;30.11;78.19;100979.84;5037527;28;70690;-42
2023/10/14 02:10:03;;;;;;;;;;;;;;;30.15;77.10;100981.09;5039048;28;67127;-41
2023/10/14 02:12:35;;;;;;;;;;;;;;;30.15;78.05;100969.44;5037438;28;70551;-40
2023/10/14 02:15:08;;;;;;;;;;;;;;;30.20;77.06;100973.16;5044195;28;65838;-41
2023/10/14 02:17:39;;;;;;;;;;;;;;;30.22;77.53;100971.09;5037904;28;70075;-41
2023/10/14 02:20:28;;;;;;;;;;;;;;;30.27;76.14;100965.88;5039740;28;66902;-40
2023/10/14 02:22:58;;;;;;;;;;;;;;;30.34;74.28;100957.75;5036744;28;70733;-40
2023/10/14 02:25:28;;;;;;;;;;;;;;;30.38;73.58;100964.38;5038658;28;67051;-40
2023/10/14 02:27:58;;;;;;;;;;;;;;;30.42;72.48;100960.22;5035737;28;70514;-41
2023/10/14 02:30:30;;;;;;;;;;;;;;;30.46;72.28;100950.59;5039958;28;66247;-40
2023/10/14 02:33:00;;;;;;;;;;;;;;;30.50;71.92;100956.41;5037804;28;69501;-40
2023/10/14 02:35:33;;;;;;;;;;;;;;;30.54;72.17;100956.81;5033818;28;43007;-41
2023/10/14 02:38:04;;;;;;;;;;;;;;;30.57;71.96;100951.78;5036425;28;70453;-41
2023/10/14 02:40:37;;;;;;;;;;;;;;;30.60;71.68;100950.53;5042364;28;66099;-40
2023/10/14 02:43:07;;;;;;;;;;;;;;;30.62;71.87;100949.28;5038041;28;70904;-40
2023/10/14 02:45:41;;;;;;;;;;;;;;;30.65;71.63;100948.84;5039138;28;67063;-40
2023/10/14 02:48:11;;;;;;;;;;;;;;;30.68;71.58;100942.97;5033640;28;70386;-41
2023/10/14 02:50:50;;;;;;;;;;;;;;;30.71;71.78;100934.41;5040085;28;66648;-41
2023/10/14 02:53:27;;;;;;;;;;;;;;;30.74;71.57;100935.88;5039342;28;69864;-40
2023/10/14 02:56:04;;;;;;;;;;;;;;;30.77;71.55;100930.00;5038970;28;67517;-41
2023/10/14 02:58:34;;;;;;;;;;;;;;;30.80;71.68;100934.19;5040775;28;70591;-41
2023/10/14 03:01:05;;;;;;;;;;;;;;;30.82;71.83;100932.94;5038220;28;65641;-41
2023/10/14 03:03:35;;;;;;;;;;;;;;;30.86;71.61;100927.91;5039076;28;70835;-48
2023/10/14 03:06:06;;;;;;;;;;;;;;;30.89;71.70;100927.44;5040434;28;67063;-41
2023/10/14 03:08:37;;;;;;;;;;;;;;;30.89;71.29;100922.84;5038451;28;69692;-40
2023/10/14 03:11:16;;;;;;;;;;;;;;;30.92;71.49;100922.44;5035463;28;67350;-41
2023/10/14 03:13:46;;;;;;;;;;;;;;;30.94;71.09;100919.50;5053522;28;70576;-40
2023/10/14 03:16:17;;;;;;;;;;;;;;;30.97;71.65;100916.34;5039198;28;66736;-40
2023/10/14 03:18:47;;;;;;;;;;;;;;;30.99;71.38;100911.56;5032808;28;70384;-40
2023/10/14 03:21:24;;;;;;;;;;;;;;;31.01;71.26;100914.03;5041952;28;66561;-40
2023/10/14 03:23:56;;;;;;;;;;;;;;;31.02;71.25;100911.09;5027062;28;69498;-40
2023/10/14 03:26:32;;;;;;;;;;;;;;;31.06;71.33;100906.06;5036843;28;66516;-40
2023/10/14 03:29:12;;;;;;;;;;;;;;;31.05;71.40;100894.41;5036723;28;70796;-41
2023/10/14 03:31:44;;;;;;;;;;;;;;;31.08;71.39;100895.84;5030747;28;66194;-41
2023/10/14 03:34:17;;;;;;;;;;;;;;;31.09;71.46;100887.50;5022929;28;70562;-40
2023/10/14 03:36:50;;;;;;;;;;;;;;;31.11;71.51;100888.09;5031960;28;66975;-41
2023/10/14 03:39:37;;;;;;;;;;;;;;;31.11;71.51;100885.38;5040078;28;69762;-42
2023/10/14 03:42:16;;;;;;;;;;;;;;;31.14;71.19;100874.09;5039548;28;66880;-41
2023/10/14 03:44:47;;;;;;;;;;;;;;;31.16;71.31;100879.31;5038241;28;69512;-41
2023/10/14 03:47:17;;;;;;;;;;;;;;;31.19;71.13;100873.44;5032164;28;66414;-40
2023/10/14 03:49:55;;;;;;;;;;;;;;;31.21;71.08;100878.66;5038711;28;69769;-40
2023/10/14 03:52:26;;;;;;;;;;;;;;;31.22;71.27;100872.16;5031528;28;65431;-39
2023/10/14 03:54:56;;;;;;;;;;;;;;;31.24;71.28;100861.94;5047466;28;70477;-39
2023/10/14 03:57:34;;;;;;;;;;;;;;;31.26;71.43;100867.94;5032151;28;66471;-40
2023/10/14 04:00:12;;;;;;;;;;;;;;;31.26;71.31;100857.09;5028693;28;70440;-40
2023/10/14 04:02:43;;;;;;;;;;;;;;;31.29;71.01;100856.69;5034640;28;66325;-40
2023/10/14 04:05:13;;;;;;;;;;;;;;;31.30;71.21;100861.03;5032725;28;70617;-41
2023/10/14 04:07:43;;;;;;;;;;;;;;;31.31;71.08;100844.53;5029291;28;66939;-40
2023/10/14 04:10:14;;;;;;;;;;;;;;;31.33;71.39;100838.91;5037510;28;70278;-40
2023/10/14 04:12:53;;;;;;;;;;;;;;;31.33;71.04;100831.59;5034118;28;68856;-40
2023/10/14 04:17:55;;;;;;;;;;;;;;;31.37;70.94;100821.16;5038367;28;66219;-41
2023/10/14 04:20:33;;;;;;;;;;;;;;;31.38;71.24;100822.84;5037845;28;69589;-40
2023/10/14 04:23:26;;;;;;;;;;;;;;;31.40;70.94;100820.75;5039849;28;66479;-41
2023/10/14 04:26:11;;;;;;;;;;;;;;;31.41;71.03;100819.69;5036852;28;69242;-41
2023/10/14 04:28:53;;;;;;;;;;;;;;;31.28;72.32;100817.06;5049869;28;66320;-41
2023/10/14 04:31:34;;;;;;;;;;;;;;;31.14;73.40;100806.34;5037756;28;69779;-40
2023/10/14 04:34:09;;;;;;;;;;;;;;;31.09;74.04;100797.25;5037580;28;65721;-40
2023/10/14 04:36:53;;;;;;;;;;;;;;;31.03;74.24;100788.13;5034504;28;69836;-40
2023/10/14 04:39:27;;;;;;;;;;;;;;;31.01;74.50;100784.84;5035113;28;66209;-40
2023/10/14 04:42:44;;;;;;;;;;;;;;;30.99;74.80;100778.81;5040052;28;69742;-41
2023/10/14 04:44:59;;;;;;;;;;;;;;;30.99;74.58;100778.81;5036458;28;67048;-42
2023/10/14 04:47:38;;;;;;;;;;;;;;;30.99;74.73;100773.41;5039659;28;70216;-41
2023/10/14 04:50:10;;;;;;;;;;;;;;;30.99;74.73;100765.28;5040300;28;67106;-45
2023/10/14 04:52:48;;;;;;;;;;;;;;;30.99;74.68;100765.28;5056865;28;70890;-40
2023/10/14 05:00:45;;;;;;;;;;;;;;;31.13;74.43;100750.53;5039249;28;66997;-39
2023/10/14 05:03:19;;;;;;;;;;;;;;;31.26;73.36;100746.84;5034073;28;70474;-41
2023/10/14 05:05:58;;;;;;;;;;;;;;;31.35;72.95;100736.53;5041821;28;66832;-41
2023/10/14 05:08:44;;;;;;;;;;;;;;;31.41;72.79;100729.41;5029719;28;70288;-41
2023/10/14 05:11:18;;;;;;;;;;;;;;;31.45;72.08;100728.69;5032906;28;66583;-40
2023/10/14 05:14:34;;;;;;;;;;;;;;;31.49;71.98;100710.94;5037410;28;70871;-40
2023/10/14 05:16:53;;;;;;;;;;;;;;;31.43;72.14;100714.56;5041453;28;65504;-40
2023/10/14 05:19:24;;;;;;;;;;;;;;;31.33;73.03;100719.66;5041541;28;70447;-41
2023/10/14 05:22:02;;;;;;;;;;;;;;;31.30;73.15;100714.69;5040560;28;66961;-41
2023/10/14 05:24:32;;;;;;;;;;;;;;;31.31;72.98;100711.75;5039550;28;69778;-43
2023/10/14 05:27:02;;;;;;;;;;;;;;;31.30;73.20;100707.38;5029791;28;66843;-41
2023/10/14 05:29:32;;;;;;;;;;;;;;;31.28;73.62;100703.25;5028787;28;70653;-40
2023/10/14 05:32:10;;;;;;;;;;;;;;;31.28;73.63;100692.41;5037500;28;66590;-39
2023/10/14 05:34:42;;;;;;;;;;;;;;;31.25;73.71;100692.88;5040164;28;70767;-40
2023/10/14 05:37:13;;;;;;;;;;;;;;;31.25;73.58;100690.97;5040162;28;66875;-41
2023/10/14 05:39:43;;;;;;;;;;;;;;;31.36;73.50;100686.72;5038964;28;70167;-41
2023/10/14 05:42:21;;;;;;;;;;;;;;;31.47;72.52;100680.50;5038938;28;65903;-41
2023/10/14 05:44:57;;;;;;;;;;;;;;;31.54;71.93;100665.00;5036476;28;70227;-41
2023/10/14 05:47:28;;;;;;;;;;;;;;;31.59;72.03;100665.13;5040222;28;66307;-40
2023/10/14 05:49:58;;;;;;;;;;;;;;;31.64;71.63;100669.84;5040724;28;68918;-40
2023/10/14 05:52:29;;;;;;;;;;;;;;;31.68;71.51;100670.22;5036819;28;66723;-40
2023/10/14 05:55:01;;;;;;;;;;;;;;;31.70;71.28;100665.38;5037330;28;69424;-41
2023/10/14 05:57:34;;;;;;;;;;;;;;;31.73;71.02;100667.63;5036635;28;66942;-41
2023/10/14 06:00:16;;;;;;;;;;;;;;;31.75;70.94;100660.09;5037922;28;70575;-40
2023/10/14 06:02:52;;;;;;;;;;;;;;;31.77;70.82;100637.13;5037090;28;65971;-40
2023/10/14 06:05:24;;;;;;;;;;;;;;;31.78;70.49;100637.94;5035637;28;70596;-40
2023/10/14 06:08:06;;;;;;;;;;;;;;;31.79;70.56;100639.63;5037342;28;67378;-40
2023/10/14 06:10:41;;;;;;;;;;;;;;;31.80;70.11;100628.50;5035973;28;70336;-39
2023/10/14 06:13:14;;;;;;;;;;;;;;;31.81;70.19;100618.50;5035709;28;67083;-39
2023/10/14 06:15:44;;;;;;;;;;;;;;;31.84;70.14;100615.31;5037349;28;69996;-39
2023/10/14 06:18:14;;;;;;;;;;;;;;;31.86;70.25;100615.09;5038071;28;65817;-40
2023/10/14 06:20:47;;;;;;;;;;;;;;;31.84;70.05;100609.88;5039992;28;69363;-41
2023/10/14 06:23:17;;;;;;;;;;;;;;;31.85;69.85;100611.56;5039754;28;67004;-42
2023/10/14 06:25:48;;;;;;;;;;;;;;;31.87;69.69;100609.41;5029276;28;69779;-41
2023/10/14 06:28:19;;;;;;;;;;;;;;;31.87;69.81;100603.97;5038635;28;66476;-42
2023/10/14 06:30:49;;;;;;;;;;;;;;;31.89;69.81;100607.28;5039437;28;69749;-42
2023/10/14 06:33:26;;;;;;;;;;;;;;;31.89;69.43;100591.03;5041016;28;66745;-42
2023/10/14 06:36:03;;;;;;;;;;;;;;;31.90;69.38;100584.56;5040549;28;70600;-41
2023/10/14 06:38:37;;;;;;;;;;;;;;;31.91;69.18;100578.09;5041800;28;66833;-40
2023/10/14 06:41:11;;;;;;;;;;;;;;;31.92;69.09;100574.31;5043850;28;69758;-41
2023/10/14 06:43:43;;;;;;;;;;;;;;;31.93;69.36;100577.84;5050260;28;67027;-41
2023/10/14 06:46:16;;;;;;;;;;;;;;;31.93;69.15;100575.97;5035227;28;70497;-40
2023/10/14 06:48:52;;;;;;;;;;;;;;;31.94;69.27;100566.75;5033929;28;65923;-40
2023/10/14 06:51:22;;;;;;;;;;;;;;;31.95;69.19;100562.16;5041028;28;69831;-42
2023/10/14 06:53:52;;;;;;;;;;;;;;;31.94;69.21;100550.50;5039908;28;66045;-41
2023/10/14 06:56:27;;;;;;;;;;;;;;;31.96;69.01;100548.38;5034434;28;70706;-39
2023/10/14 06:58:57;;;;;;;;;;;;;;;31.96;68.89;100551.09;5039128;28;65618;-41
2023/10/14 07:01:28;;;;;;;;;;;;;;;31.96;68.76;100537.53;5036375;28;70576;-41
2023/10/14 07:03:59;;;;;;;;;;;;;;;31.70;68.68;100486.41;5037914;28;66432;-41
2023/10/14 07:06:29;;;;;;;;;;;;;;;31.98;68.71;100523.72;5040663;28;70790;-41
2023/10/14 07:09:00;;;;;;;;;;;;;;;31.99;68.62;100533.53;5042936;28;66435;-40
2023/10/14 07:11:30;;;;;;;;;;;;;;;31.99;68.40;100519.94;5031419;28;69995;-42
2023/10/14 07:14:00;;;;;;;;;;;;;;;31.99;68.48;100515.34;5027773;28;65745;-41
2023/10/14 07:16:30;;;;;;;;;;;;;;;31.99;68.20;100518.06;5039497;28;70583;-40
2023/10/14 07:19:00;;;;;;;;;;;;;;;32.02;68.48;100522.19;5021882;28;66007;-41
2023/10/14 07:21:31;;;;;;;;;;;;;;;32.01;68.31;100518.66;5041356;28;70500;-40
2023/10/14 07:24:05;;;;;;;;;;;;;;;32.02;68.21;100520.28;5039285;28;66522;-40
2023/10/14 07:26:39;;;;;;;;;;;;;;;32.02;68.19;100524.91;5036921;28;71275;-44
2023/10/14 07:29:10;;;;;;;;;;;;;;;32.03;68.28;100518.41;5055760;28;66051;-40
2023/10/14 07:31:39;;;;;;;;;;;;;;;32.02;68.23;100528.44;5035872;28;70216;-41
2023/10/14 07:34:10;;;;;;;;;;;;;;;32.03;68.12;100538.22;5038822;28;66933;-41
2023/10/14 07:36:40;;;;;;;;;;;;;;;32.05;68.09;100544.25;5037558;28;70338;-40
2023/10/14 07:39:28;;;;;;;;;;;;;;;32.06;67.81;100542.34;5038831;28;67261;-40
2023/10/14 07:41:58;;;;;;;;;;;;;;;32.05;67.95;100541.53;5033658;28;69830;-43
2023/10/14 07:44:28;;;;;;;;;;;;;;;32.07;67.88;100537.75;5035763;28;66670;-40
2023/10/14 07:46:58;;;;;;;;;;;;;;;32.07;67.72;100537.75;5035215;28;69473;-40
2023/10/14 07:49:28;;;;;;;;;;;;;;;32.07;67.75;100533.16;5036059;28;66842;-40
2023/10/14 07:52:00;;;;;;;;;;;;;;;32.08;67.87;100539.41;5036354;28;70269;-40
2023/10/14 07:54:30;;;;;;;;;;;;;;;32.06;67.50;100536.91;5036290;28;66862;-40
2023/10/14 07:57:00;;;;;;;;;;;;;;;32.03;65.96;100532.78;5035840;28;70614;-41
2023/10/14 07:59:35;;;;;;;;;;;;;;;32.03;65.73;100530.06;5037720;28;66961;-39
2023/10/14 08:02:07;;;;;;;;;;;;;;;32.02;65.25;100531.16;5035265;28;70550;-40
2023/10/14 08:04:37;;;;;;;;;;;;;;;32.02;65.06;100525.72;5038628;28;65998;-39
2023/10/14 08:07:09;;;;;;;;;;;;;;;32.02;64.65;100514.88;5034718;28;70908;-40
2023/10/14 08:09:39;;;;;;;;;;;;;;;32.02;64.78;100509.44;5035663;28;65417;-39
2023/10/14 08:12:09;;;;;;;;;;;;;;;32.01;64.95;100513.22;5037280;28;69762;-39
2023/10/14 08:14:39;;;;;;;;;;;;;;;32.02;65.32;100520.28;5031767;28;66768;-40
2023/10/14 08:17:11;;;;;;;;;;;;;;;32.03;65.52;100511.09;5038303;28;69864;-39
2023/10/14 08:19:41;;;;;;;;;;;;;;;32.04;65.69;100529.03;5033048;28;66273;-39
2023/10/14 08:22:14;;;;;;;;;;;;;;;32.05;65.85;100530.66;5035271;28;70116;-39
2023/10/14 08:24:45;;;;;;;;;;;;;;;32.07;65.88;100532.31;5029181;28;66697;-40
2023/10/14 08:27:15;;;;;;;;;;;;;;;32.05;65.79;100541.53;5041017;28;69917;-38
2023/10/14 08:29:46;;;;;;;;;;;;;;;32.05;65.83;100546.94;5040374;28;66705;-39
2023/10/14 08:32:18;;;;;;;;;;;;;;;32.07;65.83;100548.59;5042987;28;69096;-40
2023/10/14 08:34:48;;;;;;;;;;;;;;;32.07;65.98;100548.59;5039670;28;66755;-39
2023/10/14 08:37:17;;;;;;;;;;;;;;;32.07;66.09;100548.59;5040428;28;70298;-39
2023/10/14 08:39:47;;;;;;;;;;;;;;;32.08;66.31;100550.25;5042053;28;66140;-39
2023/10/14 08:42:17;;;;;;;;;;;;;;;32.08;66.64;100555.69;5042444;28;69706;-40
2023/10/14 08:44:49;;;;;;;;;;;;;;;32.07;66.75;100552.16;5042470;28;66665;-39
2023/10/14 08:47:22;;;;;;;;;;;;;;;32.07;66.77;100559.44;5041092;28;70166;-40
2023/10/14 08:49:53;;;;;;;;;;;;;;;32.07;66.85;100548.59;5043334;28;66029;-40
2023/10/14 08:52:26;;;;;;;;;;;;;;;32.08;66.50;100555.69;5032199;28;69898;-39
2023/10/14 08:54:57;;;;;;;;;;;;;;;32.05;68.32;100546.94;5041507;28;66187;-40
2023/10/14 08:57:29;;;;;;;;;;;;;;;32.05;68.17;100546.13;5042513;28;69330;-39
2023/10/14 09:00:00;;;;;;;;;;;;;;;32.05;67.97;100541.53;5040848;28;65832;-40
2023/10/14 09:02:30;;;;;;;;;;;;;;;32.07;67.79;100554.03;5041950;28;69828;-38
2023/10/14 09:05:00;;;;;;;;;;;;;;;32.07;67.82;100551.31;5041953;28;66016;-40
2023/10/14 09:07:32;;;;;;;;;;;;;;;32.07;67.66;100543.16;5055693;28;69438;-40
2023/10/14 09:10:02;;;;;;;;;;;;;;;32.05;67.73;100533.38;5044209;28;66521;-40
2023/10/14 09:12:32;;;;;;;;;;;;;;;32.05;67.68;100530.66;5029459;28;70815;-40
2023/10/14 09:15:03;;;;;;;;;;;;;;;32.05;67.67;100530.66;5043307;28;66664;-39
2023/10/14 09:17:35;;;;;;;;;;;;;;;32.05;67.72;100525.25;5042592;28;69414;-40
2023/10/14 09:20:05;;;;;;;;;;;;;;;32.04;67.67;100520.88;5040514;28;66898;-41
2023/10/14 09:22:38;;;;;;;;;;;;;;;32.05;67.91;100514.38;5043532;28;68655;-41
2023/10/14 09:25:08;;;;;;;;;;;;;;;32.04;67.60;100533.63;5038688;28;67142;-39
2023/10/14 09:27:38;;;;;;;;;;;;;;;32.04;67.97;100537.16;5058953;27;70331;-38
2023/10/14 09:30:10;;;;;;;;;;;;;;;32.03;67.74;100527.38;5031767;28;65936;-40
2023/10/14 09:32:40;;;;;;;;;;;;;;;32.03;68.19;100527.38;5038920;28;71090;-40
2023/10/14 09:35:10;;;;;;;;;;;;;;;32.02;67.94;100520.28;5036015;28;66229;-38
2023/10/14 09:37:39;;;;;;;;;;;;;;;32.02;67.96;100527.63;5039805;28;70255;-39
2023/10/14 09:40:13;;;;;;;;;;;;;;;32.02;67.95;100536.56;5039067;28;66144;-39
2023/10/14 09:42:44;;;;;;;;;;;;;;;32.02;68.15;100542.00;5040754;28;69957;-39
2023/10/14 09:45:14;;;;;;;;;;;;;;;32.02;68.24;100547.44;5039429;28;66697;-40
2023/10/14 09:47:45;;;;;;;;;;;;;;;32.01;68.19;100544.94;5032524;28;70410;-40
2023/10/14 09:50:16;;;;;;;;;;;;;;;32.01;68.55;100551.22;5035046;28;66846;-39
2023/10/14 09:52:47;;;;;;;;;;;;;;;32.01;68.84;100556.63;5035604;28;70372;-39
2023/10/14 09:55:19;;;;;;;;;;;;;;;32.01;69.10;100555.78;5040667;28;66458;-38
2023/10/14 09:57:51;;;;;;;;;;;;;;;32.01;69.18;100551.22;5033585;28;69276;-39
2023/10/14 10:00:21;;;;;;;;;;;;;;;32.01;69.51;100544.94;5047387;28;66567;-39
2023/10/14 10:02:52;;;;;;;;;;;;;;;32.01;69.53;100542.22;5040357;28;69848;-39
2023/10/14 10:05:38;;;;;;;;;;;;;;;32.01;69.70;100545.78;5042006;28;66828;-39
2023/10/14 10:08:17;;;;;;;;;;;;;;;32.00;69.94;100549.53;5039473;28;70364;-40
2023/10/14 10:10:49;;;;;;;;;;;;;;;32.00;70.13;100544.13;5040392;28;65705;-40
2023/10/14 10:13:23;;;;;;;;;;;;;;;32.00;70.10;100544.13;5039894;28;68901;-41
2023/10/14 10:15:53;;;;;;;;;;;;;;;31.99;70.13;100547.91;5039309;28;65958;-39
2023/10/14 10:18:23;;;;;;;;;;;;;;;32.00;70.53;100549.53;5042005;28;69992;-39
2023/10/14 10:20:56;;;;;;;;;;;;;;;32.00;70.43;100563.09;5043109;28;66036;-39
2023/10/14 10:23:27;;;;;;;;;;;;;;;32.00;70.59;100568.53;5040479;28;71144;-39
2023/10/14 10:25:56;;;;;;;;;;;;;;;32.00;70.47;100565.81;5040052;28;66920;-40
2023/10/14 10:28:26;;;;;;;;;;;;;;;31.98;70.78;100567.97;5037040;28;69967;-38
2023/10/14 10:31:17;;;;;;;;;;;;;;;31.98;70.70;100559.81;5037875;28;66955;-40
2023/10/14 10:33:50;;;;;;;;;;;;;;;31.98;71.25;100567.13;5039497;28;70357;-39
2023/10/14 10:36:21;;;;;;;;;;;;;;;31.97;71.08;100566.28;5037132;28;66388;-39
2023/10/14 10:38:55;;;;;;;;;;;;;;;31.96;71.59;100572.78;5036526;28;67849;-39
2023/10/14 10:41:26;;;;;;;;;;;;;;;31.96;71.70;100575.50;5042206;28;67457;-39
2023/10/14 10:44:03;;;;;;;;;;;;;;;31.97;71.47;100587.19;5042170;28;69796;-40
2023/10/14 10:46:39;;;;;;;;;;;;;;;31.96;71.79;100591.78;5027275;28;67014;-39
2023/10/14 10:49:11;;;;;;;;;;;;;;;31.95;71.68;100590.09;5038962;28;70310;-40
2023/10/14 10:52:12;;;;;;;;;;;;;;;31.93;72.20;100586.81;5030948;28;66436;-39
2023/10/14 10:54:43;;;;;;;;;;;;;;;31.93;72.22;100597.69;5036910;28;70731;-40
2023/10/14 10:57:13;;;;;;;;;;;;;;;31.92;72.46;100593.28;5040131;28;66018;-41
2023/10/14 10:59:43;;;;;;;;;;;;;;;31.92;72.08;100590.59;5042281;28;71231;-39
2023/10/14 11:02:14;;;;;;;;;;;;;;;31.92;72.09;100593.28;5043334;28;66999;-39
2023/10/14 11:04:45;;;;;;;;;;;;;;;31.93;71.74;100597.69;5030415;28;71480;-40
2023/10/14 11:07:15;;;;;;;;;;;;;;;31.93;71.85;100603.09;5028221;28;67398;-39
2023/10/14 11:09:49;;;;;;;;;;;;;;;31.91;71.69;100618.78;5050574;28;70699;-39
2023/10/14 11:12:18;;;;;;;;;;;;;;;31.91;71.67;100621.50;5039248;28;66893;-40
2023/10/14 11:14:48;;;;;;;;;;;;;;;31.78;73.74;100637.94;5041940;28;70552;-39
2023/10/14 11:17:22;;;;;;;;;;;;;;;31.61;75.16;100644.03;5035602;28;66129;-41
2023/10/14 11:19:53;;;;;;;;;;;;;;;31.50;76.10;100666.50;5050882;28;70594;-42
2023/10/14 11:22:23;;;;;;;;;;;;;;;31.45;76.84;100666.34;5037834;28;65498;-39
2023/10/14 11:24:55;;;;;;;;;;;;;;;31.48;76.52;100673.19;5039972;28;69287;-41
2023/10/14 11:27:30;;;;;;;;;;;;;;;31.59;75.49;100678.69;5036798;28;65617;-40
2023/10/14 11:30:00;;;;;;;;;;;;;;;31.64;74.86;100696.97;5042114;28;70210;-39
2023/10/14 11:32:30;;;;;;;;;;;;;;;31.69;74.58;100699.00;5048643;28;65925;-48
2023/10/14 11:35:00;;;;;;;;;;;;;;;31.71;74.11;100710.44;5038568;28;70200;-40
2023/10/14 11:37:36;;;;;;;;;;;;;;;31.72;73.82;100714.81;5046883;28;67327;-39
2023/10/14 11:40:19;;;;;;;;;;;;;;;31.74;73.34;100726.25;5051847;28;71004;-39
2023/10/14 11:42:56;;;;;;;;;;;;;;;31.73;73.23;100721.88;5039988;28;66596;-39
2023/10/14 11:45:27;;;;;;;;;;;;;;;31.75;73.59;100725.19;5035763;28;69656;-39
2023/10/14 11:48:00;;;;;;;;;;;;;;;31.75;73.24;100727.91;5037671;28;66065;-39
2023/10/14 11:50:30;;;;;;;;;;;;;;;31.75;73.15;100736.03;5051021;28;70017;-39
2023/10/14 11:53:03;;;;;;;;;;;;;;;31.76;73.02;100743.97;5039821;28;66827;-39
2023/10/14 11:55:33;;;;;;;;;;;;;;;31.76;72.87;100745.81;5043731;28;69282;-39
2023/10/14 11:58:04;;;;;;;;;;;;;;;31.75;73.02;100745.00;5039122;28;65999;-39
2023/10/14 12:00:34;;;;;;;;;;;;;;;31.74;73.24;100743.34;5044201;28;71400;-40
2023/10/14 12:03:08;;;;;;;;;;;;;;;31.72;72.76;100745.47;5038404;28;66334;-39
2023/10/14 12:05:39;;;;;;;;;;;;;;;31.43;72.44;100703.72;5043414;28;70106;-40
2023/10/14 12:08:09;;;;;;;;;;;;;;;31.72;72.34;100752.78;5054553;28;66508;-40
2023/10/14 12:10:38;;;;;;;;;;;;;;;31.71;72.26;100756.56;5042956;28;69274;-40
2023/10/14 12:13:08;;;;;;;;;;;;;;;31.70;72.28;100750.28;5043534;28;66853;-39
2023/10/14 12:15:38;;;;;;;;;;;;;;;31.70;71.95;100738.59;5043357;28;70818;-39
2023/10/14 12:18:08;;;;;;;;;;;;;;;31.69;72.17;100736.97;5043465;28;66008;-41
2023/10/14 12:20:39;;;;;;;;;;;;;;;31.68;71.98;100757.84;5037764;28;69886;-41
2023/10/14 12:23:09;;;;;;;;;;;;;;;31.68;71.91;100756.97;5038698;28;66591;-40
2023/10/14 12:25:39;;;;;;;;;;;;;;;31.67;72.08;100772.44;5044031;28;69037;-40
2023/10/14 12:28:09;;;;;;;;;;;;;;;31.67;72.04;100779.75;5042595;28;65932;-41
2023/10/14 12:30:42;;;;;;;;;;;;;;;31.65;71.97;100796.25;5043771;28;70543;-41
2023/10/14 12:33:19;;;;;;;;;;;;;;;31.65;72.21;100817.09;5041963;28;65436;-40
2023/10/14 12:35:51;;;;;;;;;;;;;;;31.64;72.13;100819.00;5043807;28;70296;-40
2023/10/14 12:38:22;;;;;;;;;;;;;;;31.63;72.04;100811.09;5047311;28;66340;-41
2023/10/14 12:40:54;;;;;;;;;;;;;;;31.63;72.01;100813.81;5047729;28;69395;-39
2023/10/14 12:43:29;;;;;;;;;;;;;;;31.61;72.34;100805.88;5031056;28;66830;-40
2023/10/14 12:46:19;;;;;;;;;;;;;;;31.61;72.16;100789.63;5041920;28;70290;-40
2023/10/14 12:48:50;;;;;;;;;;;;;;;31.60;72.31;100788.78;5033573;28;66794;-38
2023/10/14 12:51:25;;;;;;;;;;;;;;;31.58;72.36;100799.03;5043193;28;70271;-39
2023/10/14 12:53:57;;;;;;;;;;;;;;;31.59;72.32;100819.69;5037505;28;66431;-39
2023/10/14 12:56:27;;;;;;;;;;;;;;;31.58;72.54;100823.44;5044159;28;70537;-41
2023/10/14 12:58:58;;;;;;;;;;;;;;;31.57;72.47;100835.34;5043283;28;67429;-40
2023/10/14 13:01:33;;;;;;;;;;;;;;;31.56;72.60;100849.13;5041421;28;69950;-40
2023/10/14 13:04:05;;;;;;;;;;;;;;;31.54;72.54;100854.78;5043410;28;67306;-40
2023/10/14 13:06:42;;;;;;;;;;;;;;;31.55;72.60;100861.84;5043114;28;70516;-38
2023/10/14 13:09:14;;;;;;;;;;;;;;;31.54;72.46;100853.97;5042764;28;66434;-39
2023/10/14 13:11:43;;;;;;;;;;;;;;;31.53;72.63;100858.53;5043169;28;70928;-39
2023/10/14 13:14:25;;;;;;;;;;;;;;;31.51;72.93;100866.06;5040513;28;67208;-41